sensor_id;sensor_type;location;lat;lon;timestamp;P1;durP1;ratioP1;P2;durP2;ratioP2
76357;SDS011;65185;21.060;105.826;2024-02-15T00:01:10;48.58;;;24.75;;
76357;SDS011;65185;21.060;105.826;2024-02-15T00:03:36;52.55;;;24.00;;
76357;SDS011;65185;21.060;105.826;2024-02-15T00:06:03;47.85;;;24.90;;
76357;SDS011;65185;21.060;105.826;2024-02-15T00:08:29;50.92;;;23.98;;
76357;SDS011;65185;21.060;105.826;2024-02-15T00:10:56;53.75;;;24.75;;
76357;SDS011;65185;21.060;105.826;2024-02-15T00:13:22;47.30;;;24.60;;
76357;SDS011;65185;21.060;105.826;2024-02-15T00:15:48;66.63;;;26.40;;
76357;SDS011;65185;21.060;105.826;2024-02-15T00:18:15;70.60;;;24.75;;
76357;SDS011;65185;21.060;105.826;2024-02-15T00:20:42;79.03;;;26.50;;
76357;SDS011;65185;21.060;105.826;2024-02-15T00:23:09;65.03;;;25.50;;
76357;SDS011;65185;21.060;105.826;2024-02-15T00:25:36;57.92;;;25.90;;
76357;SDS011;65185;21.060;105.826;2024-02-15T00:28:02;60.03;;;24.95;;
76357;SDS011;65185;21.060;105.826;2024-02-15T00:30:28;58.00;;;25.75;;
76357;SDS011;65185;21.060;105.826;2024-02-15T00:32:56;53.95;;;24.83;;
76357;SDS011;65185;21.060;105.826;2024-02-15T00:35:23;51.15;;;25.65;;
76357;SDS011;65185;21.060;105.826;2024-02-15T00:37:49;48.15;;;25.30;;
76357;SDS011;65185;21.060;105.826;2024-02-15T00:40:16;49.70;;;25.83;;
76357;SDS011;65185;21.060;105.826;2024-02-15T00:42:42;50.95;;;25.20;;
76357;SDS011;65185;21.060;105.826;2024-02-15T00:45:09;49.08;;;26.30;;
76357;SDS011;65185;21.060;105.826;2024-02-15T00:47:38;50.20;;;26.13;;
76357;SDS011;65185;21.060;105.826;2024-02-15T00:50:08;48.92;;;26.08;;
76357;SDS011;65185;21.060;105.826;2024-02-15T00:52:35;46.78;;;26.75;;
76357;SDS011;65185;21.060;105.826;2024-02-15T00:55:01;53.92;;;28.00;;
76357;SDS011;65185;21.060;105.826;2024-02-15T00:57:28;52.45;;;27.98;;
76357;SDS011;65185;21.060;105.826;2024-02-15T00:59:54;57.08;;;28.67;;
76357;SDS011;65185;21.060;105.826;2024-02-15T01:02:20;48.22;;;28.60;;
76357;SDS011;65185;21.060;105.826;2024-02-15T01:04:47;56.13;;;30.30;;
76357;SDS011;65185;21.060;105.826;2024-02-15T01:07:13;50.35;;;28.08;;
76357;SDS011;65185;21.060;105.826;2024-02-15T01:09:39;47.38;;;27.15;;
76357;SDS011;65185;21.060;105.826;2024-02-15T01:12:06;52.50;;;28.00;;
76357;SDS011;65185;21.060;105.826;2024-02-15T01:14:32;50.42;;;28.95;;
76357;SDS011;65185;21.060;105.826;2024-02-15T01:16:59;50.92;;;26.90;;
76357;SDS011;65185;21.060;105.826;2024-02-15T01:19:26;45.87;;;27.20;;
76357;SDS011;65185;21.060;105.826;2024-02-15T01:21:53;51.25;;;28.30;;
76357;SDS011;65185;21.060;105.826;2024-02-15T01:24:19;50.65;;;28.50;;
76357;SDS011;65185;21.060;105.826;2024-02-15T01:26:45;43.75;;;26.13;;
76357;SDS011;65185;21.060;105.826;2024-02-15T01:29:13;52.38;;;27.30;;
76357;SDS011;65185;21.060;105.826;2024-02-15T01:31:39;45.58;;;25.45;;
76357;SDS011;65185;21.060;105.826;2024-02-15T01:34:06;47.97;;;24.90;;
76357;SDS011;65185;21.060;105.826;2024-02-15T01:36:32;52.67;;;25.33;;
76357;SDS011;65185;21.060;105.826;2024-02-15T01:38:58;48.50;;;24.77;;
76357;SDS011;65185;21.060;105.826;2024-02-15T01:41:24;47.38;;;23.92;;
76357;SDS011;65185;21.060;105.826;2024-02-15T01:43:51;42.28;;;22.70;;
76357;SDS011;65185;21.060;105.826;2024-02-15T01:46:17;47.28;;;23.98;;
76357;SDS011;65185;21.060;105.826;2024-02-15T01:48:46;46.38;;;23.73;;
76357;SDS011;65185;21.060;105.826;2024-02-15T01:51:13;48.55;;;24.88;;
76357;SDS011;65185;21.060;105.826;2024-02-15T01:53:44;46.10;;;23.05;;
76357;SDS011;65185;21.060;105.826;2024-02-15T01:56:11;43.92;;;23.15;;
76357;SDS011;65185;21.060;105.826;2024-02-15T01:58:40;48.65;;;23.00;;
76357;SDS011;65185;21.060;105.826;2024-02-15T02:01:08;48.05;;;23.08;;
76357;SDS011;65185;21.060;105.826;2024-02-15T02:03:35;44.70;;;23.50;;
76357;SDS011;65185;21.060;105.826;2024-02-15T02:06:02;41.67;;;22.15;;
76357;SDS011;65185;21.060;105.826;2024-02-15T02:08:28;42.72;;;23.42;;
76357;SDS011;65185;21.060;105.826;2024-02-15T02:10:55;43.47;;;23.73;;
76357;SDS011;65185;21.060;105.826;2024-02-15T02:13:21;50.90;;;23.80;;
76357;SDS011;65185;21.060;105.826;2024-02-15T02:15:47;47.75;;;23.92;;
76357;SDS011;65185;21.060;105.826;2024-02-15T02:18:14;46.35;;;24.10;;
76357;SDS011;65185;21.060;105.826;2024-02-15T02:20:40;56.33;;;26.00;;
76357;SDS011;65185;21.060;105.826;2024-02-15T02:23:13;51.40;;;26.67;;
76357;SDS011;65185;21.060;105.826;2024-02-15T02:25:40;55.20;;;26.55;;
76357;SDS011;65185;21.060;105.826;2024-02-15T02:28:10;53.85;;;27.00;;
76357;SDS011;65185;21.060;105.826;2024-02-15T02:30:37;52.78;;;27.98;;
76357;SDS011;65185;21.060;105.826;2024-02-15T02:33:06;50.58;;;27.17;;
76357;SDS011;65185;21.060;105.826;2024-02-15T02:35:36;50.78;;;26.90;;
76357;SDS011;65185;21.060;105.826;2024-02-15T02:38:03;57.50;;;28.35;;
76357;SDS011;65185;21.060;105.826;2024-02-15T02:40:29;52.80;;;25.92;;
76357;SDS011;65185;21.060;105.826;2024-02-15T02:42:56;46.67;;;25.48;;
76357;SDS011;65185;21.060;105.826;2024-02-15T02:45:24;46.30;;;24.88;;
76357;SDS011;65185;21.060;105.826;2024-02-15T02:47:51;63.67;;;26.05;;
76357;SDS011;65185;21.060;105.826;2024-02-15T02:50:18;59.30;;;26.70;;
76357;SDS011;65185;21.060;105.826;2024-02-15T02:52:45;61.53;;;26.67;;
76357;SDS011;65185;21.060;105.826;2024-02-15T02:55:13;50.83;;;24.83;;
76357;SDS011;65185;21.060;105.826;2024-02-15T02:57:40;51.00;;;24.02;;
76357;SDS011;65185;21.060;105.826;2024-02-15T03:00:09;49.72;;;22.80;;
76357;SDS011;65185;21.060;105.826;2024-02-15T03:02:45;47.92;;;21.58;;
76357;SDS011;65185;21.060;105.826;2024-02-15T03:05:12;48.10;;;22.50;;
76357;SDS011;65185;21.060;105.826;2024-02-15T03:07:39;43.53;;;21.23;;
76357;SDS011;65185;21.060;105.826;2024-02-15T03:10:07;46.67;;;21.08;;
76357;SDS011;65185;21.060;105.826;2024-02-15T03:12:37;53.38;;;24.13;;
76357;SDS011;65185;21.060;105.826;2024-02-15T03:15:04;48.25;;;22.75;;
76357;SDS011;65185;21.060;105.826;2024-02-15T03:17:42;47.08;;;22.50;;
76357;SDS011;65185;21.060;105.826;2024-02-15T03:20:09;53.42;;;23.63;;
76357;SDS011;65185;21.060;105.826;2024-02-15T03:22:50;50.70;;;24.83;;
76357;SDS011;65185;21.060;105.826;2024-02-15T03:25:17;53.35;;;23.52;;
76357;SDS011;65185;21.060;105.826;2024-02-15T03:27:43;48.53;;;24.27;;
76357;SDS011;65185;21.060;105.826;2024-02-15T03:30:09;52.05;;;25.50;;
76357;SDS011;65185;21.060;105.826;2024-02-15T03:32:36;53.65;;;24.58;;
76357;SDS011;65185;21.060;105.826;2024-02-15T03:35:02;46.67;;;23.85;;
76357;SDS011;65185;21.060;105.826;2024-02-15T03:37:29;63.67;;;28.17;;
76357;SDS011;65185;21.060;105.826;2024-02-15T03:39:55;55.47;;;28.45;;
76357;SDS011;65185;21.060;105.826;2024-02-15T03:42:22;51.28;;;25.90;;
76357;SDS011;65185;21.060;105.826;2024-02-15T03:44:48;52.95;;;27.27;;
76357;SDS011;65185;21.060;105.826;2024-02-15T03:47:15;59.75;;;28.50;;
76357;SDS011;65185;21.060;105.826;2024-02-15T03:49:42;56.60;;;28.80;;
76357;SDS011;65185;21.060;105.826;2024-02-15T03:52:08;54.60;;;28.13;;
76357;SDS011;65185;21.060;105.826;2024-02-15T03:54:36;70.63;;;31.92;;
76357;SDS011;65185;21.060;105.826;2024-02-15T03:57:02;61.88;;;30.33;;
76357;SDS011;65185;21.060;105.826;2024-02-15T03:59:29;63.40;;;30.92;;
76357;SDS011;65185;21.060;105.826;2024-02-15T04:01:57;59.60;;;31.90;;
76357;SDS011;65185;21.060;105.826;2024-02-15T04:04:23;70.38;;;35.00;;
76357;SDS011;65185;21.060;105.826;2024-02-15T04:06:51;61.70;;;33.97;;
76357;SDS011;65185;21.060;105.826;2024-02-15T04:09:18;68.55;;;34.63;;
76357;SDS011;65185;21.060;105.826;2024-02-15T04:11:46;67.53;;;33.10;;
76357;SDS011;65185;21.060;105.826;2024-02-15T04:14:18;60.05;;;31.00;;
76357;SDS011;65185;21.060;105.826;2024-02-15T04:16:45;61.35;;;31.58;;
76357;SDS011;65185;21.060;105.826;2024-02-15T04:19:11;59.58;;;32.28;;
76357;SDS011;65185;21.060;105.826;2024-02-15T04:21:37;61.85;;;31.85;;
76357;SDS011;65185;21.060;105.826;2024-02-15T04:24:05;62.17;;;32.50;;
76357;SDS011;65185;21.060;105.826;2024-02-15T04:26:32;75.95;;;36.50;;
76357;SDS011;65185;21.060;105.826;2024-02-15T04:28:58;70.80;;;34.90;;
76357;SDS011;65185;21.060;105.826;2024-02-15T04:31:25;64.75;;;34.05;;
76357;SDS011;65185;21.060;105.826;2024-02-15T04:33:55;76.85;;;33.00;;
76357;SDS011;65185;21.060;105.826;2024-02-15T04:36:22;62.55;;;31.13;;
76357;SDS011;65185;21.060;105.826;2024-02-15T04:38:52;54.22;;;28.25;;
76357;SDS011;65185;21.060;105.826;2024-02-15T04:41:18;53.58;;;26.92;;
76357;SDS011;65185;21.060;105.826;2024-02-15T04:43:46;57.50;;;28.55;;
76357;SDS011;65185;21.060;105.826;2024-02-15T04:46:13;53.85;;;26.33;;
76357;SDS011;65185;21.060;105.826;2024-02-15T04:48:40;48.95;;;25.75;;
76357;SDS011;65185;21.060;105.826;2024-02-15T04:51:10;49.40;;;25.67;;
76357;SDS011;65185;21.060;105.826;2024-02-15T04:53:36;51.08;;;24.40;;
76357;SDS011;65185;21.060;105.826;2024-02-15T04:56:05;48.83;;;23.58;;
76357;SDS011;65185;21.060;105.826;2024-02-15T04:58:41;49.85;;;24.23;;
76357;SDS011;65185;21.060;105.826;2024-02-15T05:01:14;49.53;;;21.95;;
76357;SDS011;65185;21.060;105.826;2024-02-15T05:03:42;56.33;;;25.63;;
76357;SDS011;65185;21.060;105.826;2024-02-15T05:06:09;50.90;;;24.02;;
76357;SDS011;65185;21.060;105.826;2024-02-15T05:08:40;57.13;;;25.80;;
76357;SDS011;65185;21.060;105.826;2024-02-15T05:11:10;49.70;;;25.92;;
76357;SDS011;65185;21.060;105.826;2024-02-15T05:13:47;54.53;;;26.77;;
76357;SDS011;65185;21.060;105.826;2024-02-15T05:16:16;49.80;;;25.20;;
76357;SDS011;65185;21.060;105.826;2024-02-15T05:18:43;55.85;;;28.63;;
76357;SDS011;65185;21.060;105.826;2024-02-15T05:21:11;53.72;;;26.23;;
76357;SDS011;65185;21.060;105.826;2024-02-15T05:23:38;57.70;;;28.23;;
76357;SDS011;65185;21.060;105.826;2024-02-15T05:26:05;59.75;;;31.75;;
76357;SDS011;65185;21.060;105.826;2024-02-15T05:28:32;57.35;;;28.45;;
76357;SDS011;65185;21.060;105.826;2024-02-15T05:31:09;54.78;;;26.33;;
76357;SDS011;65185;21.060;105.826;2024-02-15T05:33:43;47.13;;;25.58;;
76357;SDS011;65185;21.060;105.826;2024-02-15T05:36:19;48.53;;;22.92;;
76357;SDS011;65185;21.060;105.826;2024-02-15T05:38:52;49.60;;;23.92;;
76357;SDS011;65185;21.060;105.826;2024-02-15T05:41:20;53.22;;;24.27;;
76357;SDS011;65185;21.060;105.826;2024-02-15T05:43:47;45.65;;;24.98;;
76357;SDS011;65185;21.060;105.826;2024-02-15T05:46:14;51.00;;;27.88;;
76357;SDS011;65185;21.060;105.826;2024-02-15T05:48:40;54.13;;;24.52;;
76357;SDS011;65185;21.060;105.826;2024-02-15T05:51:07;52.33;;;23.75;;
76357;SDS011;65185;21.060;105.826;2024-02-15T05:53:34;41.40;;;21.10;;
76357;SDS011;65185;21.060;105.826;2024-02-15T05:56:07;41.97;;;21.05;;
76357;SDS011;65185;21.060;105.826;2024-02-15T05:58:35;42.60;;;21.30;;
76357;SDS011;65185;21.060;105.826;2024-02-15T06:01:02;60.10;;;27.58;;
76357;SDS011;65185;21.060;105.826;2024-02-15T06:03:35;62.03;;;29.95;;
76357;SDS011;65185;21.060;105.826;2024-02-15T06:06:05;58.20;;;28.50;;
76357;SDS011;65185;21.060;105.826;2024-02-15T06:08:32;49.80;;;26.15;;
76357;SDS011;65185;21.060;105.826;2024-02-15T06:11:02;56.00;;;28.40;;
76357;SDS011;65185;21.060;105.826;2024-02-15T06:13:29;58.15;;;27.95;;
76357;SDS011;65185;21.060;105.826;2024-02-15T06:15:56;50.40;;;24.33;;
76357;SDS011;65185;21.060;105.826;2024-02-15T06:18:24;53.03;;;27.58;;
76357;SDS011;65185;21.060;105.826;2024-02-15T06:20:58;61.38;;;27.90;;
76357;SDS011;65185;21.060;105.826;2024-02-15T06:23:25;51.83;;;25.92;;
76357;SDS011;65185;21.060;105.826;2024-02-15T06:25:53;50.38;;;24.77;;
76357;SDS011;65185;21.060;105.826;2024-02-15T06:28:26;42.85;;;23.05;;
76357;SDS011;65185;21.060;105.826;2024-02-15T06:31:21;50.30;;;24.35;;
76357;SDS011;65185;21.060;105.826;2024-02-15T06:34:06;45.22;;;23.63;;
76357;SDS011;65185;21.060;105.826;2024-02-15T06:36:52;44.67;;;22.00;;
76357;SDS011;65185;21.060;105.826;2024-02-15T06:39:37;44.72;;;22.50;;
76357;SDS011;65185;21.060;105.826;2024-02-15T06:42:09;41.38;;;21.00;;
76357;SDS011;65185;21.060;105.826;2024-02-15T06:44:41;38.70;;;20.35;;
76357;SDS011;65185;21.060;105.826;2024-02-15T06:47:09;47.20;;;21.65;;
76357;SDS011;65185;21.060;105.826;2024-02-15T06:49:39;43.25;;;21.67;;
76357;SDS011;65185;21.060;105.826;2024-02-15T06:52:07;39.17;;;20.73;;
76357;SDS011;65185;21.060;105.826;2024-02-15T06:54:34;40.83;;;19.92;;
76357;SDS011;65185;21.060;105.826;2024-02-15T06:57:03;38.65;;;19.98;;
76357;SDS011;65185;21.060;105.826;2024-02-15T06:59:31;35.88;;;18.67;;
76357;SDS011;65185;21.060;105.826;2024-02-15T07:01:58;37.75;;;18.83;;
76357;SDS011;65185;21.060;105.826;2024-02-15T07:04:25;37.00;;;19.05;;
76357;SDS011;65185;21.060;105.826;2024-02-15T07:06:52;36.13;;;19.42;;
76357;SDS011;65185;21.060;105.826;2024-02-15T07:09:20;41.88;;;20.85;;
76357;SDS011;65185;21.060;105.826;2024-02-15T07:11:52;46.90;;;22.00;;
76357;SDS011;65185;21.060;105.826;2024-02-15T07:14:19;41.30;;;21.92;;
76357;SDS011;65185;21.060;105.826;2024-02-15T07:16:46;46.40;;;22.45;;
76357;SDS011;65185;21.060;105.826;2024-02-15T07:19:13;42.95;;;21.70;;
76357;SDS011;65185;21.060;105.826;2024-02-15T07:21:41;39.20;;;20.20;;
76357;SDS011;65185;21.060;105.826;2024-02-15T07:24:08;44.63;;;21.35;;
76357;SDS011;65185;21.060;105.826;2024-02-15T07:26:35;46.70;;;22.85;;
76357;SDS011;65185;21.060;105.826;2024-02-15T07:29:01;44.65;;;22.42;;
76357;SDS011;65185;21.060;105.826;2024-02-15T07:31:31;45.35;;;22.60;;
76357;SDS011;65185;21.060;105.826;2024-02-15T07:34:01;48.00;;;24.67;;
76357;SDS011;65185;21.060;105.826;2024-02-15T07:36:28;53.47;;;24.08;;
76357;SDS011;65185;21.060;105.826;2024-02-15T07:38:55;51.05;;;24.38;;
76357;SDS011;65185;21.060;105.826;2024-02-15T07:41:26;45.13;;;22.67;;
76357;SDS011;65185;21.060;105.826;2024-02-15T07:43:53;53.60;;;26.77;;
76357;SDS011;65185;21.060;105.826;2024-02-15T07:46:20;50.75;;;23.90;;
76357;SDS011;65185;21.060;105.826;2024-02-15T07:48:47;53.40;;;26.58;;
76357;SDS011;65185;21.060;105.826;2024-02-15T07:51:18;52.78;;;26.83;;
76357;SDS011;65185;21.060;105.826;2024-02-15T07:53:45;50.28;;;26.35;;
76357;SDS011;65185;21.060;105.826;2024-02-15T07:56:13;47.67;;;25.92;;
76357;SDS011;65185;21.060;105.826;2024-02-15T07:58:41;42.03;;;23.42;;
76357;SDS011;65185;21.060;105.826;2024-02-15T08:01:10;43.50;;;24.35;;
76357;SDS011;65185;21.060;105.826;2024-02-15T08:03:36;50.13;;;27.75;;
76357;SDS011;65185;21.060;105.826;2024-02-15T08:06:08;54.97;;;27.63;;
76357;SDS011;65185;21.060;105.826;2024-02-15T08:08:34;50.15;;;26.05;;
76357;SDS011;65185;21.060;105.826;2024-02-15T08:11:02;50.88;;;26.40;;
76357;SDS011;65185;21.060;105.826;2024-02-15T08:13:29;61.20;;;29.80;;
76357;SDS011;65185;21.060;105.826;2024-02-15T08:15:55;52.78;;;27.80;;
76357;SDS011;65185;21.060;105.826;2024-02-15T08:18:22;61.05;;;30.23;;
76357;SDS011;65185;21.060;105.826;2024-02-15T08:20:48;54.63;;;28.67;;
76357;SDS011;65185;21.060;105.826;2024-02-15T08:23:14;62.85;;;30.15;;
76357;SDS011;65185;21.060;105.826;2024-02-15T08:25:41;72.60;;;35.40;;
76357;SDS011;65185;21.060;105.826;2024-02-15T08:28:07;66.40;;;35.28;;
76357;SDS011;65185;21.060;105.826;2024-02-15T08:30:34;64.05;;;32.00;;
76357;SDS011;65185;21.060;105.826;2024-02-15T08:33:02;61.72;;;30.30;;
76357;SDS011;65185;21.060;105.826;2024-02-15T08:35:29;73.25;;;35.88;;
76357;SDS011;65185;21.060;105.826;2024-02-15T08:37:55;67.50;;;37.00;;
76357;SDS011;65185;21.060;105.826;2024-02-15T08:40:22;68.75;;;35.00;;
76357;SDS011;65185;21.060;105.826;2024-02-15T08:42:50;70.28;;;35.67;;
76357;SDS011;65185;21.060;105.826;2024-02-15T08:45:16;66.70;;;34.22;;
76357;SDS011;65185;21.060;105.826;2024-02-15T08:47:43;68.35;;;35.35;;
76357;SDS011;65185;21.060;105.826;2024-02-15T08:50:11;61.53;;;33.38;;
76357;SDS011;65185;21.060;105.826;2024-02-15T08:52:38;63.38;;;33.17;;
76357;SDS011;65185;21.060;105.826;2024-02-15T08:55:09;64.25;;;33.25;;
76357;SDS011;65185;21.060;105.826;2024-02-15T08:57:39;65.05;;;33.33;;
76357;SDS011;65185;21.060;105.826;2024-02-15T09:00:06;73.18;;;36.28;;
76357;SDS011;65185;21.060;105.826;2024-02-15T09:02:47;61.28;;;31.15;;
76357;SDS011;65185;21.060;105.826;2024-02-15T09:05:14;61.83;;;31.30;;
76357;SDS011;65185;21.060;105.826;2024-02-15T09:07:41;61.35;;;32.65;;
76357;SDS011;65185;21.060;105.826;2024-02-15T09:10:11;53.80;;;30.38;;
76357;SDS011;65185;21.060;105.826;2024-02-15T09:12:39;59.95;;;32.25;;
76357;SDS011;65185;21.060;105.826;2024-02-15T09:15:07;56.05;;;30.00;;
76357;SDS011;65185;21.060;105.826;2024-02-15T09:17:34;56.35;;;29.20;;
76357;SDS011;65185;21.060;105.826;2024-02-15T09:20:10;51.85;;;27.52;;
76357;SDS011;65185;21.060;105.826;2024-02-15T09:22:43;62.20;;;31.90;;
76357;SDS011;65185;21.060;105.826;2024-02-15T09:25:17;58.95;;;31.15;;
76357;SDS011;65185;21.060;105.826;2024-02-15T09:27:44;61.30;;;33.22;;
76357;SDS011;65185;21.060;105.826;2024-02-15T09:32:40;65.00;;;32.58;;
76357;SDS011;65185;21.060;105.826;2024-02-15T09:35:08;61.92;;;32.45;;
76357;SDS011;65185;21.060;105.826;2024-02-15T09:37:35;63.60;;;34.45;;
76357;SDS011;65185;21.060;105.826;2024-02-15T09:40:08;66.07;;;34.63;;
76357;SDS011;65185;21.060;105.826;2024-02-15T09:42:37;69.05;;;36.72;;
76357;SDS011;65185;21.060;105.826;2024-02-15T09:45:08;61.25;;;33.28;;
76357;SDS011;65185;21.060;105.826;2024-02-15T09:47:45;64.15;;;33.28;;
76357;SDS011;65185;21.060;105.826;2024-02-15T09:50:16;55.67;;;32.47;;
76357;SDS011;65185;21.060;105.826;2024-02-15T09:52:48;60.58;;;33.55;;
76357;SDS011;65185;21.060;105.826;2024-02-15T09:55:22;60.95;;;33.42;;
76357;SDS011;65185;21.060;105.826;2024-02-15T09:57:50;63.50;;;35.00;;
76357;SDS011;65185;21.060;105.826;2024-02-15T10:00:16;64.53;;;35.10;;
76357;SDS011;65185;21.060;105.826;2024-02-15T10:02:43;63.47;;;36.33;;
76357;SDS011;65185;21.060;105.826;2024-02-15T10:05:11;66.20;;;35.70;;
76357;SDS011;65185;21.060;105.826;2024-02-15T10:07:41;65.43;;;37.42;;
76357;SDS011;65185;21.060;105.826;2024-02-15T10:10:17;63.63;;;34.67;;
76357;SDS011;65185;21.060;105.826;2024-02-15T10:12:47;58.42;;;34.75;;
76357;SDS011;65185;21.060;105.826;2024-02-15T10:18:03;66.80;;;37.15;;
76357;SDS011;65185;21.060;105.826;2024-02-15T10:20:32;65.13;;;36.03;;
76357;SDS011;65185;21.060;105.826;2024-02-15T10:25:36;49.92;;;28.45;;
76357;SDS011;65185;21.060;105.826;2024-02-15T10:28:04;70.35;;;34.85;;
76357;SDS011;65185;21.060;105.826;2024-02-15T10:30:35;65.55;;;34.72;;
76357;SDS011;65185;21.060;105.826;2024-02-15T10:33:02;68.55;;;33.65;;
76357;SDS011;65185;21.060;105.826;2024-02-15T10:35:30;64.10;;;35.10;;
76357;SDS011;65185;21.060;105.826;2024-02-15T10:38:06;63.00;;;34.85;;
76357;SDS011;65185;21.060;105.826;2024-02-15T10:40:39;63.65;;;34.10;;
76357;SDS011;65185;21.060;105.826;2024-02-15T10:43:08;70.55;;;37.10;;
76357;SDS011;65185;21.060;105.826;2024-02-15T10:45:38;61.97;;;34.20;;
76357;SDS011;65185;21.060;105.826;2024-02-15T10:48:09;57.08;;;31.42;;
76357;SDS011;65185;21.060;105.826;2024-02-15T10:50:36;57.15;;;31.13;;
76357;SDS011;65185;21.060;105.826;2024-02-15T10:53:16;56.17;;;32.05;;
76357;SDS011;65185;21.060;105.826;2024-02-15T10:55:53;58.33;;;32.30;;
76357;SDS011;65185;21.060;105.826;2024-02-15T10:58:32;63.70;;;34.75;;
76357;SDS011;65185;21.060;105.826;2024-02-15T11:01:05;62.50;;;35.13;;
76357;SDS011;65185;21.060;105.826;2024-02-15T11:03:39;60.80;;;34.20;;
76357;SDS011;65185;21.060;105.826;2024-02-15T11:06:14;68.68;;;38.35;;
76357;SDS011;65185;21.060;105.826;2024-02-15T11:08:42;85.55;;;44.22;;
76357;SDS011;65185;21.060;105.826;2024-02-15T11:11:10;84.13;;;45.83;;
76357;SDS011;65185;21.060;105.826;2024-02-15T11:13:39;88.05;;;47.22;;
76357;SDS011;65185;21.060;105.826;2024-02-15T11:16:08;94.30;;;50.45;;
76357;SDS011;65185;21.060;105.826;2024-02-15T11:18:49;93.32;;;48.85;;
76357;SDS011;65185;21.060;105.826;2024-02-15T11:21:17;89.75;;;47.60;;
76357;SDS011;65185;21.060;105.826;2024-02-15T11:23:44;86.57;;;46.75;;
76357;SDS011;65185;21.060;105.826;2024-02-15T11:26:57;94.03;;;49.38;;
76357;SDS011;65185;21.060;105.826;2024-02-15T11:32:43;96.82;;;52.42;;
76357;SDS011;65185;21.060;105.826;2024-02-15T11:35:15;93.57;;;50.38;;
76357;SDS011;65185;21.060;105.826;2024-02-15T11:40:16;84.43;;;47.78;;
76357;SDS011;65185;21.060;105.826;2024-02-15T11:42:51;92.47;;;49.72;;
76357;SDS011;65185;21.060;105.826;2024-02-15T11:45:18;88.75;;;47.83;;
76357;SDS011;65185;21.060;105.826;2024-02-15T11:47:49;83.13;;;45.30;;
76357;SDS011;65185;21.060;105.826;2024-02-15T11:50:20;86.70;;;49.28;;
76357;SDS011;65185;21.060;105.826;2024-02-15T11:52:47;89.13;;;47.40;;
76357;SDS011;65185;21.060;105.826;2024-02-15T11:55:19;85.63;;;46.60;;
76357;SDS011;65185;21.060;105.826;2024-02-15T12:00:30;89.35;;;49.22;;
76357;SDS011;65185;21.060;105.826;2024-02-15T12:03:21;89.88;;;49.20;;
76357;SDS011;65185;21.060;105.826;2024-02-15T12:06:06;92.75;;;51.10;;
76357;SDS011;65185;21.060;105.826;2024-02-15T12:08:51;97.20;;;53.17;;
76357;SDS011;65185;21.060;105.826;2024-02-15T12:11:37;84.05;;;48.03;;
76357;SDS011;65185;21.060;105.826;2024-02-15T12:14:22;91.43;;;49.22;;
76357;SDS011;65185;21.060;105.826;2024-02-15T12:17:08;85.63;;;47.22;;
76357;SDS011;65185;21.060;105.826;2024-02-15T12:19:54;79.53;;;45.55;;
76357;SDS011;65185;21.060;105.826;2024-02-15T12:22:28;83.90;;;46.58;;
76357;SDS011;65185;21.060;105.826;2024-02-15T12:24:58;82.40;;;44.83;;
76357;SDS011;65185;21.060;105.826;2024-02-15T12:27:26;86.45;;;49.10;;
76357;SDS011;65185;21.060;105.826;2024-02-15T12:29:53;90.10;;;49.42;;
76357;SDS011;65185;21.060;105.826;2024-02-15T12:32:24;91.72;;;51.78;;
76357;SDS011;65185;21.060;105.826;2024-02-15T12:34:51;86.15;;;50.00;;
76357;SDS011;65185;21.060;105.826;2024-02-15T12:37:21;87.40;;;49.80;;
76357;SDS011;65185;21.060;105.826;2024-02-15T12:39:49;85.95;;;48.70;;
76357;SDS011;65185;21.060;105.826;2024-02-15T12:42:16;96.07;;;53.97;;
76357;SDS011;65185;21.060;105.826;2024-02-15T12:44:43;93.85;;;54.17;;
76357;SDS011;65185;21.060;105.826;2024-02-15T12:47:17;99.75;;;57.80;;
76357;SDS011;65185;21.060;105.826;2024-02-15T12:49:50;101.05;;;57.25;;
76357;SDS011;65185;21.060;105.826;2024-02-15T12:52:32;96.70;;;57.63;;
76357;SDS011;65185;21.060;105.826;2024-02-15T12:55:10;103.13;;;57.42;;
76357;SDS011;65185;21.060;105.826;2024-02-15T12:57:42;99.68;;;56.58;;
76357;SDS011;65185;21.060;105.826;2024-02-15T13:00:17;88.85;;;53.20;;
76357;SDS011;65185;21.060;105.826;2024-02-15T13:02:49;95.03;;;52.53;;
76357;SDS011;65185;21.060;105.826;2024-02-15T13:05:18;90.50;;;51.88;;
76357;SDS011;65185;21.060;105.826;2024-02-15T13:07:50;91.30;;;55.58;;
76357;SDS011;65185;21.060;105.826;2024-02-15T13:10:18;93.70;;;55.65;;
76357;SDS011;65185;21.060;105.826;2024-02-15T13:12:44;96.35;;;56.58;;
76357;SDS011;65185;21.060;105.826;2024-02-15T13:15:15;92.07;;;55.05;;
76357;SDS011;65185;21.060;105.826;2024-02-15T13:17:52;85.82;;;52.50;;
76357;SDS011;65185;21.060;105.826;2024-02-15T13:20:20;84.78;;;51.42;;
76357;SDS011;65185;21.060;105.826;2024-02-15T13:22:58;88.43;;;52.58;;
76357;SDS011;65185;21.060;105.826;2024-02-15T13:25:33;87.80;;;50.20;;
76357;SDS011;65185;21.060;105.826;2024-02-15T13:28:05;87.50;;;51.35;;
76357;SDS011;65185;21.060;105.826;2024-02-15T13:30:34;95.45;;;54.03;;
76357;SDS011;65185;21.060;105.826;2024-02-15T13:33:01;93.50;;;55.53;;
76357;SDS011;65185;21.060;105.826;2024-02-15T13:35:28;91.78;;;55.65;;
76357;SDS011;65185;21.060;105.826;2024-02-15T13:37:54;97.75;;;57.05;;
76357;SDS011;65185;21.060;105.826;2024-02-15T13:40:23;99.25;;;57.70;;
76357;SDS011;65185;21.060;105.826;2024-02-15T13:42:54;91.88;;;54.17;;
76357;SDS011;65185;21.060;105.826;2024-02-15T13:45:35;88.43;;;54.35;;
76357;SDS011;65185;21.060;105.826;2024-02-15T13:48:05;97.57;;;57.30;;
76357;SDS011;65185;21.060;105.826;2024-02-15T13:50:33;89.22;;;54.17;;
76357;SDS011;65185;21.060;105.826;2024-02-15T13:52:59;90.88;;;53.53;;
76357;SDS011;65185;21.060;105.826;2024-02-15T13:55:27;94.97;;;55.72;;
76357;SDS011;65185;21.060;105.826;2024-02-15T13:57:54;93.63;;;55.33;;
76357;SDS011;65185;21.060;105.826;2024-02-15T14:00:22;95.30;;;57.00;;
76357;SDS011;65185;21.060;105.826;2024-02-15T14:02:57;95.22;;;57.22;;
76357;SDS011;65185;21.060;105.826;2024-02-15T14:05:25;93.07;;;56.05;;
76357;SDS011;65185;21.060;105.826;2024-02-15T14:08:03;98.10;;;57.58;;
76357;SDS011;65185;21.060;105.826;2024-02-15T14:13:03;97.78;;;57.50;;
76357;SDS011;65185;21.060;105.826;2024-02-15T14:15:37;96.32;;;57.50;;
76357;SDS011;65185;21.060;105.826;2024-02-15T14:18:07;96.68;;;57.15;;
76357;SDS011;65185;21.060;105.826;2024-02-15T14:20:43;101.40;;;59.45;;
76357;SDS011;65185;21.060;105.826;2024-02-15T14:23:12;98.10;;;58.22;;
76357;SDS011;65185;21.060;105.826;2024-02-15T14:25:39;96.45;;;58.78;;
76357;SDS011;65185;21.060;105.826;2024-02-15T14:28:05;99.90;;;59.65;;